Time;durP1;ratioP1;P1;durP2;ratioP2;P2;SDS_P1;SDS_P2;PMS_P1;PMS_P2;Temp;Humidity;BMP_temperature;BMP_pressure;BME280_temperature;BME280_humidity;BME280_pressure;Samples;Min_cycle;Max_cycle;Signal;HPM_P1;HPM_P2
2021/04/17 00:01:49;;;;;;;0.82;0.82;;;;;;;6.03;54.13;93553.59;4989908;28;20037;-44
2021/04/17 00:04:14;;;;;;;0.40;0.40;;;;;;;5.97;54.77;93549.44;4990171;28;20101;-46
2021/04/17 00:06:40;;;;;;;0.40;0.40;;;;;;;6.10;54.81;93542.03;4989866;28;20534;-46
2021/04/17 00:09:09;;;;;;;0.32;0.32;;;;;;;6.05;55.21;93536.63;4972444;28;20061;-45
2021/04/17 00:11:35;;;;;;;0.98;0.90;;;;;;;6.04;55.01;93535.16;4990147;28;20018;-44
2021/04/17 00:14:01;;;;;;;1.60;1.50;;;;;;;6.06;55.77;93530.59;4990107;28;20104;-45
2021/04/17 00:16:26;;;;;;;1.90;1.80;;;;;;;6.13;54.67;93534.03;4989883;28;20475;-45
2021/04/17 00:18:52;;;;;;;2.40;1.13;;;;;;;6.11;54.69;93524.31;4987667;28;20038;-44
2021/04/17 00:21:18;;;;;;;0.45;0.45;;;;;;;6.18;55.60;93530.47;4989947;28;20023;-44
2021/04/17 00:23:44;;;;;;;1.77;1.67;;;;;;;6.13;55.62;93520.34;4989372;28;20510;-45
2021/04/17 00:26:09;;;;;;;3.75;1.52;;;;;;;6.13;55.75;93531.31;4990985;28;20040;-44
2021/04/17 00:28:35;;;;;;;1.30;1.20;;;;;;;5.90;57.05;93506.91;4991097;28;20064;-43
2021/04/17 00:31:00;;;;;;;3.33;1.98;;;;;;;5.94;58.56;93520.31;4990190;28;20511;-46
2021/04/17 00:33:26;;;;;;;1.30;1.13;;;;;;;5.91;60.68;93521.34;5007705;28;20045;-44
2021/04/17 00:35:51;;;;;;;2.83;2.72;;;;;;;5.70;63.78;93526.53;5010420;28;20079;-45
2021/04/17 00:38:17;;;;;;;0.68;0.68;;;;;;;5.85;65.15;93515.94;4991975;28;20583;-44
2021/04/17 00:40:42;;;;;;;2.05;0.43;;;;;;;5.73;67.40;93506.34;4989805;28;20380;-45
2021/04/17 00:43:08;;;;;;;0.40;0.40;;;;;;;5.77;67.63;93519.72;4990414;28;20419;-44
2021/04/17 00:45:34;;;;;;;0.38;0.35;;;;;;;5.60;69.36;93494.53;4990462;28;20121;-42
2021/04/17 00:47:59;;;;;;;0.52;0.52;;;;;;;5.54;70.53;93515.78;4990650;28;20109;-44
2021/04/17 00:50:25;;;;;;;0.30;0.30;;;;;;;5.39;71.34;93497.75;4990662;28;20026;-44
2021/04/17 00:52:54;;;;;;;0.45;0.45;;;;;;;5.36;72.47;93498.78;4990118;28;20022;-46
2021/04/17 00:55:19;;;;;;;;;;;;;;;5.22;73.62;93494.44;4990761;28;20022;-44
2021/04/17 00:57:45;;;;;;;0.38;0.38;;;;;;;5.07;73.82;93499.56;4990613;28;19984;-45
2021/04/17 01:00:12;;;;;;;0.20;0.20;;;;;;;5.20;74.38;93494.22;4990161;28;20454;-44
2021/04/17 01:02:47;;;;;;;0.30;0.30;;;;;;;5.12;74.41;93473.41;4990414;28;20030;-45
2021/04/17 01:05:14;;;;;;;0.30;0.30;;;;;;;5.37;74.95;93492.03;4989026;28;20052;-44
2021/04/17 01:07:45;;;;;;;0.90;0.88;;;;;;;5.42;74.42;93484.28;4988662;28;20018;-44
2021/04/17 01:10:26;;;;;;;0.45;0.45;;;;;;;5.46;74.74;93488.22;4989963;28;20046;-44
2021/04/17 01:12:54;;;;;;;1.30;1.20;;;;;;;5.50;74.44;93485.91;4988775;28;20041;-45
2021/04/17 01:15:20;;;;;;;0.57;0.57;;;;;;;5.58;74.75;93475.88;4964837;28;20029;-46
2021/04/17 01:17:48;;;;;;;1.17;1.13;;;;;;;5.63;73.39;93477.09;4970008;28;20479;-44
2021/04/17 01:20:26;;;;;;;0.40;0.40;;;;;;;5.48;73.07;93472.00;4961802;28;20169;-44
2021/04/17 01:23:23;;;;;;;0.60;0.60;;;;;;;5.52;74.26;93461.53;4989145;28;20554;-45
2021/04/17 01:25:54;;;;;;;0.35;0.35;;;;;;;5.54;74.66;93461.75;4989343;28;20643;-45
2021/04/17 01:28:21;;;;;;;0.35;0.35;;;;;;;5.51;73.08;93462.78;4989195;28;20023;-44
2021/04/17 01:30:47;;;;;;;0.40;0.40;;;;;;;5.61;72.84;93469.38;4987732;28;20100;-45
2021/04/17 01:33:14;;;;;;;1.38;1.33;;;;;;;5.46;73.80;93468.31;4971480;28;20060;-44
2021/04/17 01:35:39;;;;;;;3.85;1.95;;;;;;;5.45;74.52;93473.06;4989415;28;20018;-44
2021/04/17 01:38:18;;;;;;;0.70;0.70;;;;;;;5.49;74.25;93473.50;4971383;28;20097;-44
2021/04/17 01:40:47;;;;;;;0.82;0.82;;;;;;;5.56;74.35;93472.94;4989140;28;20120;-44
2021/04/17 01:43:14;;;;;;;0.30;0.30;;;;;;;5.60;73.54;93470.63;4991329;28;20034;-43
2021/04/17 01:45:41;;;;;;;1.08;0.98;;;;;;;5.27;73.55;93457.31;4976030;28;20080;-45
2021/04/17 01:48:07;;;;;;;1.38;1.27;;;;;;;5.12;74.90;93467.91;4975798;28;20038;-45
2021/04/17 01:50:33;;;;;;;0.45;0.45;;;;;;;5.08;75.39;93464.72;4993093;28;20080;-43
2021/04/17 01:53:00;;;;;;;1.40;1.35;;;;;;;5.12;74.02;93468.66;4992744;28;20101;-43
2021/04/17 01:55:26;;;;;;;0.50;0.50;;;;;;;4.99;74.27;93467.81;4975384;28;20030;-44
2021/04/17 01:57:52;;;;;;;3.60;1.33;;;;;;;4.98;75.31;93455.38;4975615;28;20033;-44
2021/04/17 02:00:19;;;;;;;0.63;0.40;;;;;;;4.88;76.27;93451.50;4992936;28;20037;-44
2021/04/17 02:02:44;;;;;;;0.30;0.30;;;;;;;4.63;76.93;93454.19;4992877;28;20113;-45
2021/04/17 02:05:10;;;;;;;1.65;1.50;;;;;;;4.77;76.58;93459.78;4992389;28;20044;-45
2021/04/17 02:07:35;;;;;;;0.50;0.50;;;;;;;4.79;75.56;93460.03;4992642;28;20027;-47
2021/04/17 02:10:01;;;;;;;0.77;0.77;;;;;;;4.74;75.99;93464.31;4992017;28;20030;-44
2021/04/17 02:12:26;;;;;;;1.52;1.42;;;;;;;4.72;76.59;93463.34;4991532;28;20048;-46
2021/04/17 02:14:52;;;;;;;0.35;0.35;;;;;;;4.78;77.39;93464.03;4991342;28;20033;-46
2021/04/17 02:18:05;;;;;;;0.90;0.90;;;;;;;4.93;77.21;93462.41;4989924;28;20058;-44
2021/04/17 02:20:35;;;;;;;2.63;2.42;;;;;;;4.85;75.94;93460.72;4919081;29;20020;-43
2021/04/17 02:23:01;;;;;;;1.55;1.45;;;;;;;4.96;76.54;93468.84;4984331;28;20038;-44
2021/04/17 02:25:26;;;;;;;2.80;2.60;;;;;;;5.09;75.46;93466.94;4991382;28;20019;-46
2021/04/17 02:27:52;;;;;;;0.65;0.65;;;;;;;4.87;75.33;93461.72;4973592;28;20019;-46
2021/04/17 02:30:18;;;;;;;0.73;0.73;;;;;;;4.99;74.60;93468.56;4974359;28;20022;-46
2021/04/17 02:32:44;;;;;;;0.93;0.93;;;;;;;5.00;74.79;93466.56;4990870;28;20046;-48
2021/04/17 02:35:10;;;;;;;1.42;0.95;;;;;;;4.87;75.22;93471.91;4990994;28;20037;-46
2021/04/17 02:37:35;;;;;;;0.28;0.28;;;;;;;5.09;73.68;93468.97;4991117;28;20049;-45
2021/04/17 02:40:01;;;;;;;0.95;0.95;;;;;;;5.00;73.74;93470.00;4990873;28;20026;-46
2021/04/17 02:42:26;;;;;;;1.08;1.08;;;;;;;4.94;74.23;93468.59;4990847;28;20073;-44
2021/04/17 02:44:51;;;;;;;0.60;0.60;;;;;;;4.79;75.90;93470.97;4987863;28;20027;-45
2021/04/17 02:47:18;;;;;;;0.95;0.95;;;;;;;4.94;75.15;93471.31;4991639;28;20030;-45
2021/04/17 02:49:44;;;;;;;0.47;0.47;;;;;;;5.00;74.54;93474.75;4991028;28;20031;-45
2021/04/17 02:52:09;;;;;;;3.80;1.23;;;;;;;4.97;74.85;93473.03;4990881;28;20050;-46
2021/04/17 02:54:35;;;;;;;0.50;0.50;;;;;;;5.01;75.07;93470.75;4990742;28;20054;-47
2021/04/17 02:57:00;;;;;;;0.88;0.68;;;;;;;5.04;74.90;93478.72;4991604;28;20022;-46
2021/04/17 02:59:26;;;;;;;0.65;0.65;;;;;;;5.04;74.55;93472.50;4991095;28;20073;-48
2021/04/17 03:01:51;;;;;;;0.60;0.60;;;;;;;4.83;74.82;93465.97;4990940;28;20030;-46
2021/04/17 03:04:17;;;;;;;0.30;0.30;;;;;;;4.94;75.28;93468.59;4991943;28;20555;-47
2021/04/17 03:06:42;;;;;;;0.50;0.50;;;;;;;5.02;75.16;93469.53;4991369;28;20029;-44
2021/04/17 03:09:08;;;;;;;0.77;0.77;;;;;;;4.93;75.32;93459.66;4991460;28;20049;-44
2021/04/17 03:11:34;;;;;;;0.57;0.57;;;;;;;5.09;74.13;93480.63;4991762;28;20018;-44
2021/04/17 03:13:59;;;;;;;0.60;0.60;;;;;;;5.01;73.31;93457.09;4991417;28;20459;-44
2021/04/17 03:16:25;;;;;;;0.55;0.50;;;;;;;5.31;73.26;93469.47;4991513;28;20026;-46
2021/04/17 03:18:51;;;;;;;0.93;0.93;;;;;;;5.21;75.28;93467.59;4991463;28;20037;-45
2021/04/17 03:21:16;;;;;;;1.65;1.55;;;;;;;5.24;73.89;93469.31;4991508;28;20034;-44
2021/04/17 03:23:42;;;;;;;0.50;0.50;;;;;;;5.28;73.92;93461.53;4991472;28;20018;-44
2021/04/17 03:26:07;;;;;;;0.40;0.40;;;;;;;5.24;74.85;93467.28;4991225;28;20034;-46
2021/04/17 03:28:32;;;;;;;0.60;0.60;;;;;;;5.25;73.85;93466.03;4991005;28;20126;-44
2021/04/17 03:30:58;;;;;;;0.30;0.30;;;;;;;5.28;73.44;93464.28;4991295;28;20054;-45
2021/04/17 03:33:23;;;;;;;1.05;1.05;;;;;;;5.33;73.40;93474.41;4990770;28;20084;-46
2021/04/17 03:35:49;;;;;;;0.60;0.60;;;;;;;5.30;72.41;93461.78;4991179;28;20026;-45
2021/04/17 03:38:14;;;;;;;0.55;0.55;;;;;;;5.24;73.31;93442.66;4991218;28;20053;-47
2021/04/17 03:40:40;;;;;;;0.82;0.82;;;;;;;5.29;74.71;93452.81;4991037;28;20515;-47
2021/04/17 03:43:05;;;;;;;0.85;0.65;;;;;;;5.31;74.11;93460.50;4990998;28;20084;-46
2021/04/17 03:45:31;;;;;;;0.40;0.40;;;;;;;5.08;73.45;93460.00;4991006;28;20471;-44
2021/04/17 03:47:57;;;;;;;1.73;1.45;;;;;;;5.24;73.60;93461.81;4991025;28;20102;-45
2021/04/17 03:50:22;;;;;;;0.77;0.70;;;;;;;5.32;74.41;93464.72;4990648;28;20022;-44
2021/04/17 03:52:48;;;;;;;0.50;0.50;;;;;;;5.32;74.49;93464.72;4990804;28;20081;-47
2021/04/17 03:55:16;;;;;;;1.17;0.95;;;;;;;5.02;74.36;93461.31;4990773;28;20018;-45
2021/04/17 03:57:43;;;;;;;0.43;0.43;;;;;;;5.16;74.69;93460.91;4990773;28;20034;-47
2021/04/17 04:00:15;;;;;;;0.30;0.30;;;;;;;5.17;75.03;93454.19;4990720;28;20023;-45
2021/04/17 04:02:40;;;;;;;1.10;1.10;;;;;;;5.27;74.61;93458.06;4990248;28;20033;-46
2021/04/17 04:05:07;;;;;;;1.88;1.77;;;;;;;5.26;74.31;93453.81;4989774;28;20037;-45
2021/04/17 04:07:32;;;;;;;0.70;0.70;;;;;;;5.25;73.79;93455.09;4990679;28;20093;-45
2021/04/17 04:09:58;;;;;;;1.20;1.10;;;;;;;5.28;73.09;93456.06;4990561;28;20027;-45
2021/04/17 04:12:23;;;;;;;1.85;1.75;;;;;;;5.37;73.89;93445.50;4990215;28;20026;-44
2021/04/17 04:14:49;;;;;;;0.40;0.40;;;;;;;5.44;73.73;93448.91;4990405;28;20114;-45
2021/04/17 04:17:14;;;;;;;1.85;1.75;;;;;;;5.43;74.26;93445.44;4990559;28;20026;-46
2021/04/17 04:19:40;;;;;;;1.30;1.20;;;;;;;5.57;74.53;93449.00;4990386;28;20023;-47
2021/04/17 04:22:05;;;;;;;0.85;0.85;;;;;;;5.57;74.02;93460.69;4990238;28;20042;-46
2021/04/17 04:24:30;;;;;;;0.57;0.57;;;;;;;5.50;74.11;93450.31;4990344;28;20030;-48
2021/04/17 04:26:56;;;;;;;0.50;0.50;;;;;;;5.57;74.50;93451.75;4990238;28;20483;-45
2021/04/17 04:29:22;;;;;;;0.40;0.40;;;;;;;5.59;72.32;93455.44;4990346;28;20043;-46
2021/04/17 04:31:47;;;;;;;2.40;1.23;;;;;;;5.46;72.63;93457.38;4989945;28;20070;-45
2021/04/17 04:34:13;;;;;;;0.73;0.73;;;;;;;5.33;74.91;93456.00;4990082;28;20022;-46
2021/04/17 04:36:38;;;;;;;0.50;0.50;;;;;;;5.35;74.45;93452.75;4989741;28;20034;-48
2021/04/17 04:39:04;;;;;;;1.45;1.20;;;;;;;5.33;73.52;93434.09;4989924;28;20022;-45
2021/04/17 04:41:29;;;;;;;1.20;1.20;;;;;;;5.61;74.29;93452.94;4989683;28;20025;-47
2021/04/17 04:43:55;;;;;;;0.95;0.95;;;;;;;5.61;72.95;93447.44;4989791;28;20026;-48
2021/04/17 04:46:20;;;;;;;0.40;0.40;;;;;;;5.74;73.21;93455.75;4990061;28;20166;-46
2021/04/17 04:48:46;;;;;;;1.52;1.08;;;;;;;5.81;72.53;93452.44;4989512;28;20042;-47
2021/04/17 04:51:11;;;;;;;1.20;1.15;;;;;;;5.83;73.34;93443.69;4989429;28;20031;-46
2021/04/17 04:53:38;;;;;;;6.43;1.23;;;;;;;5.81;73.19;93455.19;4989632;28;20029;-45
2021/04/17 04:56:04;;;;;;;1.42;1.33;;;;;;;5.79;73.35;93443.25;4989485;28;20014;-45
2021/04/17 04:58:30;;;;;;;3.53;1.73;;;;;;;5.78;73.13;93450.72;4989791;28;20034;-46
2021/04/17 05:00:55;;;;;;;1.50;1.40;;;;;;;5.80;72.35;93458.44;4989483;28;20037;-47
2021/04/17 05:03:21;;;;;;;1.13;1.13;;;;;;;5.73;72.24;93462.50;4989783;28;20104;-46
2021/04/17 05:05:46;;;;;;;1.67;1.58;;;;;;;5.82;71.12;93462.16;4989212;28;20042;-45
2021/04/17 05:08:12;;;;;;;1.25;1.25;;;;;;;5.77;70.90;93465.69;4989416;28;20022;-45
2021/04/17 05:10:37;;;;;;;1.42;1.30;;;;;;;5.68;71.03;93471.53;4988498;28;20038;-45
2021/04/17 05:13:03;;;;;;;1.35;1.25;;;;;;;5.62;72.06;93459.91;4988860;28;20027;-44
2021/04/17 05:15:28;;;;;;;2.28;2.08;;;;;;;5.59;71.64;93460.94;4989053;28;20038;-45
2021/04/17 05:17:53;;;;;;;2.50;2.20;;;;;;;5.50;71.28;93461.28;4988524;28;20030;-45
2021/04/17 05:20:19;;;;;;;2.70;2.53;;;;;;;5.54;71.37;93469.97;4989310;28;20025;-46
2021/04/17 05:22:44;;;;;;;1.55;1.38;;;;;;;5.49;71.10;93443.38;4989067;28;20030;-46
2021/04/17 05:25:10;;;;;;;1.38;1.38;;;;;;;5.39;72.03;93456.66;4988923;28;20766;-46
2021/04/17 05:27:36;;;;;;;1.17;1.08;;;;;;;5.46;72.33;93451.91;4965216;28;20030;-46
2021/04/17 05:30:03;;;;;;;2.63;1.42;;;;;;;5.52;71.92;93441.63;4986715;28;20092;-44
2021/04/17 05:32:28;;;;;;;0.77;0.77;;;;;;;5.57;71.34;93440.78;4996533;28;20077;-46
2021/04/17 05:34:54;;;;;;;2.70;2.05;;;;;;;5.52;71.84;93430.66;5006808;28;20053;-46
2021/04/17 05:37:20;;;;;;;1.25;1.17;;;;;;;5.44;71.83;93438.69;4994496;28;20721;-45
2021/04/17 05:39:45;;;;;;;1.33;1.15;;;;;;;5.28;71.88;93434.16;4987472;28;20030;-44
2021/04/17 05:42:11;;;;;;;5.72;1.65;;;;;;;5.21;72.04;93424.53;4986859;28;20550;-46
2021/04/17 05:44:36;;;;;;;0.50;0.50;;;;;;;5.37;71.54;93431.81;4986829;28;20030;-46
2021/04/17 05:47:02;;;;;;;0.60;0.55;;;;;;;5.43;72.88;93434.50;5002224;28;20117;-46
2021/04/17 05:49:28;;;;;;;1.10;0.88;;;;;;;5.42;72.46;93430.25;5006940;28;20116;-46
2021/04/17 05:51:53;;;;;;;2.10;1.90;;;;;;;5.44;73.66;93422.28;5006455;28;20489;-45
2021/04/17 05:54:19;;;;;;;0.40;0.40;;;;;;;5.52;72.47;93425.94;5006680;28;20025;-45
2021/04/17 05:56:44;;;;;;;0.63;0.63;;;;;;;5.70;72.51;93414.22;5006995;28;20572;-47
2021/04/17 05:59:10;;;;;;;2.05;1.58;;;;;;;5.81;71.98;93422.31;5006895;28;20476;-45
2021/04/17 06:01:35;;;;;;;0.40;0.40;;;;;;;5.82;72.25;93420.31;5006559;28;20026;-47
2021/04/17 06:04:01;;;;;;;0.50;0.50;;;;;;;5.92;69.63;93415.94;4982419;28;20114;-47
2021/04/17 06:06:26;;;;;;;1.17;0.85;;;;;;;5.78;71.08;93417.13;4982843;28;20114;-47
2021/04/17 06:08:52;;;;;;;0.75;0.75;;;;;;;5.74;71.66;93417.41;4986838;28;20032;-46
2021/04/17 06:11:17;;;;;;;0.60;0.60;;;;;;;5.69;70.83;93420.97;4986623;28;20483;-46
2021/04/17 06:13:43;;;;;;;0.30;0.30;;;;;;;5.80;71.04;93415.34;4986618;28;20131;-47
2021/04/17 06:16:09;;;;;;;0.40;0.40;;;;;;;5.87;70.90;93422.25;4986106;28;20046;-45
2021/04/17 06:18:35;;;;;;;0.60;0.60;;;;;;;5.89;70.82;93422.50;4986851;28;20034;-43
2021/04/17 06:21:01;;;;;;;0.30;0.30;;;;;;;5.86;70.40;93424.25;4987072;28;20027;-46
2021/04/17 06:23:27;;;;;;;1.70;1.35;;;;;;;5.66;72.33;93422.00;4986978;28;20106;-45
2021/04/17 06:25:53;;;;;;;0.60;0.60;;;;;;;5.49;72.87;93426.19;4986939;28;20109;-46
2021/04/17 06:28:18;;;;;;;1.00;0.95;;;;;;;5.69;73.11;93425.72;4987238;28;20037;-43
2021/04/17 06:30:44;;;;;;;2.60;1.58;;;;;;;5.55;72.02;93411.19;4989883;28;20157;-45
2021/04/17 06:33:10;;;;;;;0.73;0.60;;;;;;;5.65;74.18;93420.50;4989561;28;20050;-45
2021/04/17 06:35:36;;;;;;;2.65;1.17;;;;;;;5.74;74.43;93425.63;4976152;28;20923;-46
2021/04/17 06:38:03;;;;;;;1.15;1.15;;;;;;;5.64;73.71;93413.56;4989821;28;20049;-45
2021/04/17 06:40:28;;;;;;;0.70;0.70;;;;;;;5.68;73.24;93430.44;4988597;28;20065;-46
2021/04/17 06:42:54;;;;;;;0.35;0.35;;;;;;;5.83;73.21;93427.25;4989478;28;20475;-47
2021/04/17 06:45:21;;;;;;;0.50;0.50;;;;;;;5.93;72.15;93422.94;4988604;28;20109;-47
2021/04/17 06:47:47;;;;;;;1.52;1.42;;;;;;;5.81;74.44;93424.28;4989705;28;20109;-47
2021/04/17 06:50:13;;;;;;;2.15;1.42;;;;;;;5.89;72.80;93417.00;4988804;28;20101;-46
2021/04/17 06:52:39;;;;;;;0.40;0.40;;;;;;;5.77;73.34;93416.38;4989874;28;20495;-47
2021/04/17 06:55:07;;;;;;;0.75;0.75;;;;;;;5.85;72.75;93413.81;4972048;28;20030;-45
2021/04/17 06:57:33;;;;;;;1.35;1.35;;;;;;;5.86;72.79;93413.31;4989445;28;20022;-46
2021/04/17 07:00:19;;;;;;;2.15;1.95;;;;;;;6.01;72.74;93412.84;4989933;28;20026;-45
2021/04/17 07:02:45;;;;;;;0.30;0.30;;;;;;;5.98;72.76;93411.88;4969795;28;20089;-45
2021/04/17 07:05:11;;;;;;;0.85;0.77;;;;;;;5.87;73.41;93401.06;4970185;28;20458;-45
2021/04/17 07:07:36;;;;;;;1.27;1.27;;;;;;;5.89;74.27;93397.84;4969822;28;20030;-45
2021/04/17 07:10:03;;;;;;;2.03;1.85;;;;;;;6.02;73.37;93390.38;4970178;28;20120;-46
2021/04/17 07:12:28;;;;;;;0.73;0.73;;;;;;;6.03;73.20;93391.13;4970486;28;20022;-42
2021/04/17 07:14:54;;;;;;;0.35;0.35;;;;;;;6.11;74.03;93389.25;4980105;28;20033;-46
2021/04/17 07:17:21;;;;;;;1.58;1.58;;;;;;;6.30;74.17;93392.72;4989574;28;20543;-45
2021/04/17 07:19:50;;;;;;;0.65;0.65;;;;;;;6.38;72.58;93398.34;4988780;28;20117;-43
2021/04/17 07:22:27;;;;;;;1.50;1.40;;;;;;;6.40;72.26;93393.06;4988922;28;20596;-46
2021/04/17 07:25:13;;;;;;;1.17;1.17;;;;;;;6.29;72.15;93390.50;4987075;28;20034;-45
2021/04/17 07:27:44;;;;;;;1.35;1.25;;;;;;;6.09;73.08;93398.03;4988943;28;20026;-44
2021/04/17 07:30:16;;;;;;;0.65;0.65;;;;;;;6.08;73.50;93390.31;4984097;28;20042;-43
2021/04/17 07:32:46;;;;;;;1.20;1.20;;;;;;;6.11;73.86;93383.78;4986471;28;20047;-44
2021/04/17 07:35:16;;;;;;;0.40;0.40;;;;;;;6.09;74.46;93383.56;4986276;28;20578;-46
2021/04/17 07:37:47;;;;;;;3.17;1.60;;;;;;;6.03;74.69;93377.44;4986721;28;20058;-45
2021/04/17 07:40:15;;;;;;;2.50;1.35;;;;;;;6.22;74.83;93377.38;4987342;28;20612;-44
2021/04/17 07:42:45;;;;;;;0.30;0.30;;;;;;;6.39;73.74;93375.16;4986612;28;20145;-45
2021/04/17 07:45:28;;;;;;;1.48;1.05;;;;;;;6.45;73.08;93368.31;4986374;28;20040;-45
2021/04/17 07:47:59;;;;;;;0.85;0.85;;;;;;;6.56;71.85;93378.34;4987931;28;20105;-46
2021/04/17 07:50:32;;;;;;;1.73;1.63;;;;;;;6.50;71.54;93372.19;4988641;28;20041;-46
2021/04/17 07:52:59;;;;;;;1.42;1.33;;;;;;;6.43;72.44;93375.56;4988308;28;20109;-46
2021/04/17 07:55:30;;;;;;;0.93;0.93;;;;;;;6.51;73.21;93376.44;4988478;28;20062;-45
2021/04/17 07:57:56;;;;;;;2.03;1.15;;;;;;;6.61;72.53;93372.00;4988767;28;20533;-46
2021/04/17 08:00:23;;;;;;;1.00;1.00;;;;;;;6.52;71.59;93372.44;4987452;28;20527;-42
2021/04/17 08:02:52;;;;;;;0.28;0.28;;;;;;;6.63;71.87;93366.75;4985841;28;20033;-42
2021/04/17 08:05:18;;;;;;;1.00;1.00;;;;;;;6.86;71.92;93379.53;4986365;28;20045;-45
2021/04/17 08:07:44;;;;;;;1.52;1.52;;;;;;;6.88;72.39;93363.31;4986139;28;20043;-44
2021/04/17 08:10:11;;;;;;;3.53;1.17;;;;;;;7.11;70.27;93374.59;4986578;28;20170;-46
2021/04/17 08:12:39;;;;;;;0.95;0.95;;;;;;;7.26;70.54;93377.56;4986440;28;20019;-45
2021/04/17 08:15:07;;;;;;;0.65;0.65;;;;;;;7.24;69.21;93390.31;4984436;28;20025;-46
2021/04/17 08:17:33;;;;;;;0.40;0.40;;;;;;;7.06;69.23;93380.91;4986079;28;20034;-45
2021/04/17 08:19:58;;;;;;;2.33;0.90;;;;;;;6.99;70.76;93386.31;4986122;28;20080;-45
2021/04/17 08:22:25;;;;;;;3.85;1.30;;;;;;;6.95;70.34;93383.91;4986718;28;20106;-44
2021/04/17 08:24:52;;;;;;;0.98;0.95;;;;;;;6.94;69.60;93384.41;4969302;28;20684;-46
2021/04/17 08:27:18;;;;;;;0.85;0.85;;;;;;;7.04;68.69;93383.47;4982105;28;20799;-45
2021/04/17 08:29:53;;;;;;;0.52;0.52;;;;;;;7.05;69.73;93382.19;4985378;28;20030;-44
2021/04/17 08:32:35;;;;;;;1.92;1.83;;;;;;;7.06;69.52;93378.19;4986680;28;20486;-44
2021/04/17 08:35:17;;;;;;;0.65;0.65;;;;;;;7.00;70.23;93383.03;4986713;28;20027;-44
2021/04/17 08:40:35;;;;;;;0.50;0.50;;;;;;;6.71;69.70;93373.81;4986320;28;20097;-44
2021/04/17 08:43:06;;;;;;;0.38;0.38;;;;;;;6.64;70.97;93373.72;4983923;28;20109;-45
2021/04/17 08:45:32;;;;;;;0.30;0.30;;;;;;;6.75;70.84;93368.78;4968556;28;20053;-44
2021/04/17 08:47:59;;;;;;;0.28;0.28;;;;;;;6.73;70.83;93373.31;4986289;28;20513;-44
2021/04/17 08:50:30;;;;;;;0.60;0.60;;;;;;;6.77;71.90;93374.47;4986613;28;20030;-45
2021/04/17 08:53:06;;;;;;;1.95;0.77;;;;;;;6.71;71.22;93376.56;4985642;28;20786;-44
2021/04/17 08:55:35;;;;;;;0.50;0.50;;;;;;;6.66;72.43;93365.69;4965670;28;20092;-45
2021/04/17 08:58:12;;;;;;;0.40;0.40;;;;;;;6.63;71.26;93361.25;4983723;28;20034;-44
2021/04/17 09:00:40;;;;;;;0.22;0.22;;;;;;;6.80;70.65;93345.97;4986113;28;20776;-40
2021/04/17 09:03:06;;;;;;;0.93;0.93;;;;;;;6.87;70.02;93347.34;4985948;28;20076;-42
2021/04/17 09:05:45;;;;;;;0.35;0.35;;;;;;;6.88;70.65;93333.13;4984683;28;20052;-40
2021/04/17 09:08:13;;;;;;;0.70;0.70;;;;;;;6.89;70.33;93331.09;4985823;28;20074;-40
2021/04/17 09:10:39;;;;;;;0.55;0.40;;;;;;;7.00;70.91;93332.88;4985850;28;20088;-40
2021/04/17 09:13:20;;;;;;;0.20;0.20;;;;;;;7.17;71.38;93331.28;4986287;28;20030;-41
2021/04/17 09:16:02;;;;;;;0.95;0.95;;;;;;;7.17;70.13;93336.06;4983064;28;20034;-41
2021/04/17 09:18:37;;;;;;;0.32;0.32;;;;;;;7.06;69.85;93337.00;4985926;28;20483;-39
2021/04/17 09:21:08;;;;;;;0.30;0.30;;;;;;;6.85;70.35;93341.66;4984535;28;20745;-41
2021/04/17 09:23:45;;;;;;;0.50;0.50;;;;;;;6.94;71.43;93340.50;4985642;28;20034;-39
2021/04/17 09:26:29;;;;;;;1.05;1.05;;;;;;;7.00;70.13;93343.88;4986018;28;20445;-39
2021/04/17 09:28:55;;;;;;;0.82;0.82;;;;;;;7.11;71.86;93349.16;4985888;28;20045;-39
2021/04/17 09:31:21;;;;;;;0.47;0.47;;;;;;;7.31;71.12;93346.50;4985886;28;20018;-40
2021/04/17 09:33:47;;;;;;;0.35;0.35;;;;;;;7.50;69.86;93340.88;4985945;28;20030;-40
2021/04/17 09:36:21;;;;;;;1.88;0.57;;;;;;;7.46;68.54;93323.97;4985374;28;20030;-40
2021/04/17 09:38:47;;;;;;;1.95;0.75;;;;;;;7.46;69.75;93332.22;4984636;28;20050;-40
2021/04/17 09:41:13;;;;;;;0.63;0.52;;;;;;;7.52;68.81;93325.34;4985444;28;20073;-40
2021/04/17 09:43:39;;;;;;;0.40;0.40;;;;;;;7.56;70.54;93325.75;4985454;28;20566;-40
2021/04/17 09:46:18;;;;;;;1.25;1.05;;;;;;;7.46;70.03;93319.22;4985536;28;20106;-40
2021/04/17 09:48:44;;;;;;;0.63;0.63;;;;;;;7.56;70.48;93328.50;4985677;28;20026;-40
2021/04/17 09:51:27;;;;;;;0.30;0.30;;;;;;;7.53;71.09;93317.84;4985524;28;20169;-40
2021/04/17 09:53:54;;;;;;;0.50;0.50;;;;;;;7.48;70.88;93313.19;4986116;28;20491;-39
2021/04/17 09:56:31;;;;;;;0.50;0.50;;;;;;;7.69;70.85;93308.47;4983293;28;20089;-40
2021/04/17 09:58:58;;;;;;;0.50;0.50;;;;;;;7.59;69.93;93307.47;4985537;28;20026;-40
2021/04/17 10:01:24;;;;;;;0.40;0.40;;;;;;;7.52;69.45;93295.13;4985648;28;20110;-40
2021/04/17 10:03:56;;;;;;;0.52;0.47;;;;;;;7.40;70.18;93293.16;4987213;28;20491;-40
2021/04/17 10:06:28;;;;;;;0.63;0.63;;;;;;;7.48;71.11;93294.72;4989692;28;20068;-39
2021/04/17 10:09:16;;;;;;;0.85;0.65;;;;;;;7.57;69.36;93293.53;4989507;28;20030;-39
2021/04/17 10:11:43;;;;;;;0.20;0.20;;;;;;;7.74;70.17;93290.38;4989522;28;20037;-40
2021/04/17 10:14:11;;;;;;;0.60;0.60;;;;;;;7.79;68.86;93287.53;4988313;28;20034;-39
2021/04/17 10:16:42;;;;;;;0.30;0.30;;;;;;;7.69;69.21;93280.28;4989613;28;20109;-40
2021/04/17 10:19:10;;;;;;;0.65;0.65;;;;;;;7.72;68.74;93279.19;4989517;28;20872;-40
2021/04/17 10:21:36;;;;;;;0.45;0.45;;;;;;;7.59;69.63;93282.72;4989728;28;20022;-40
2021/04/17 10:24:27;;;;;;;0.52;0.52;;;;;;;7.50;70.27;93259.19;4986876;28;20045;-39
2021/04/17 10:26:57;;;;;;;0.40;0.40;;;;;;;7.47;70.65;93295.97;4988955;28;20594;-40
2021/04/17 10:29:55;;;;;;;0.57;0.38;;;;;;;7.62;69.63;93285.13;4989347;28;20026;-40
2021/04/17 10:32:24;;;;;;;0.60;0.60;;;;;;;7.46;70.74;93297.25;4955635;28;20050;-40
2021/04/17 10:34:55;;;;;;;0.95;0.95;;;;;;;7.51;71.87;93292.91;4988678;28;20030;-39
2021/04/17 10:37:24;;;;;;;0.43;0.40;;;;;;;7.71;70.57;93281.19;4985725;28;20038;-41
2021/04/17 10:40:08;;;;;;;0.60;0.60;;;;;;;7.83;70.99;93279.69;4971658;28;20022;-39
2021/04/17 10:42:55;;;;;;;1.20;1.20;;;;;;;7.89;69.50;93288.53;4988970;28;20033;-40
2021/04/17 10:45:23;;;;;;;2.53;0.82;;;;;;;7.67;69.52;93277.34;4989125;28;20037;-40
2021/04/17 10:48:06;;;;;;;0.60;0.60;;;;;;;7.55;71.29;93283.06;4989515;28;20018;-40
2021/04/17 10:50:34;;;;;;;0.52;0.52;;;;;;;7.66;70.48;93284.81;4985014;28;20026;-40
2021/04/17 10:53:10;;;;;;;0.43;0.43;;;;;;;7.78;70.53;93288.03;4988874;28;20403;-40
2021/04/17 10:55:48;;;;;;;0.88;0.65;;;;;;;7.79;70.75;93284.78;4988716;28;20441;-40
2021/04/17 10:58:31;;;;;;;0.40;0.40;;;;;;;7.73;69.93;93273.19;4988250;28;20038;-40
2021/04/17 11:01:26;;;;;;;0.90;0.77;;;;;;;7.62;70.78;93281.69;4986355;28;20068;-40
2021/04/17 11:03:53;;;;;;;0.45;0.45;;;;;;;7.49;71.40;93282.44;4987067;28;20030;-40
2021/04/17 11:06:31;;;;;;;0.30;0.30;;;;;;;7.52;71.11;93278.63;4987768;28;20113;-40
2021/04/17 11:09:10;;;;;;;1.55;1.45;;;;;;;7.58;70.97;93284.00;4988844;28;20099;-40
2021/04/17 11:11:36;;;;;;;0.80;0.52;;;;;;;7.54;70.98;93269.84;4987397;28;20601;-40
2021/04/17 11:14:04;;;;;;;0.98;0.98;;;;;;;7.45;72.10;93273.06;4987710;28;20085;-40
2021/04/17 11:16:51;;;;;;;2.45;0.40;;;;;;;7.42;71.71;93269.38;4988806;28;20018;-40
2021/04/17 11:19:29;;;;;;;0.60;0.60;;;;;;;7.43;71.97;93265.34;4986207;28;20068;-40
2021/04/17 11:22:20;;;;;;;2.85;0.90;;;;;;;7.35;71.95;93272.75;4986143;28;20030;-39
2021/04/17 11:25:02;;;;;;;0.73;0.73;;;;;;;7.27;72.50;93263.72;4988829;28;20053;-39
2021/04/17 11:27:29;;;;;;;0.20;0.20;;;;;;;7.29;71.89;93261.16;4988482;28;20032;-39
2021/04/17 11:29:55;;;;;;;0.45;0.45;;;;;;;7.29;72.50;93261.16;4988459;28;20034;-38
2021/04/17 11:32:21;;;;;;;0.90;0.90;;;;;;;7.34;71.88;93262.31;4988590;28;20054;-39
2021/04/17 11:34:48;;;;;;;0.50;0.50;;;;;;;7.30;71.88;93256.41;4988811;28;20033;-39
2021/04/17 11:37:14;;;;;;;1.23;1.13;;;;;;;7.34;71.70;93245.84;4988554;28;20030;-39
2021/04/17 11:39:40;;;;;;;0.63;0.63;;;;;;;7.35;73.22;93253.53;4988415;28;20028;-39
2021/04/17 11:42:06;;;;;;;1.00;1.00;;;;;;;7.41;72.56;93259.66;4987532;28;20042;-40
2021/04/17 11:44:32;;;;;;;0.82;0.82;;;;;;;7.42;73.18;93247.41;4988481;28;20034;-38
2021/04/17 11:46:58;;;;;;;0.20;0.20;;;;;;;7.46;72.43;93252.56;4988448;28;20057;-39
2021/04/17 11:49:24;;;;;;;0.57;0.57;;;;;;;7.44;72.99;93253.09;4988121;28;20774;-39
2021/04/17 11:51:49;;;;;;;2.97;1.55;;;;;;;7.43;72.38;93239.88;4988263;28;20092;-39